createdAt,value
2023-04-18T00:00:51.269Z,2486.00
2023-04-18T00:01:51.269Z,2486.00
2023-04-18T00:02:51.385Z,2473.00
2023-04-18T00:03:51.578Z,2482.00
2023-04-18T00:04:51.457Z,2472.00
2023-04-18T00:05:51.290Z,2445.00
2023-04-18T00:06:51.308Z,2428.00
2023-04-18T00:07:51.310Z,2435.00
2023-04-18T00:08:51.326Z,2397.00
2023-04-18T00:09:51.350Z,2355.00
2023-04-18T00:10:51.332Z,2372.00
2023-04-18T00:11:51.338Z,2407.00
2023-04-18T00:12:51.345Z,2374.00
2023-04-18T00:13:51.362Z,2375.00
2023-04-18T00:14:51.371Z,2351.00
2023-04-18T00:15:51.358Z,2395.00
2023-04-18T00:16:51.452Z,2358.00
2023-04-18T00:17:51.404Z,2345.00
2023-04-18T00:18:51.378Z,2393.00
2023-04-18T00:19:51.459Z,2415.00
2023-04-18T00:20:51.407Z,2418.00
2023-04-18T00:21:51.403Z,2391.00
2023-04-18T00:22:51.424Z,2378.00
2023-04-18T00:23:51.456Z,2387.00
2023-04-18T00:24:51.452Z,2425.00
2023-04-18T00:25:51.434Z,2443.00
2023-04-18T00:26:51.481Z,2453.00
2023-04-18T00:27:51.461Z,2488.00
2023-04-18T00:28:51.486Z,2514.00
2023-04-18T00:29:51.514Z,2503.00
2023-04-18T00:30:51.531Z,2506.00
2023-04-18T00:31:51.503Z,2479.00
2023-04-18T00:32:51.578Z,2507.00
2023-04-18T00:33:51.525Z,2539.00
2023-04-18T00:34:51.559Z,2538.00
2023-04-18T00:35:51.550Z,2527.00
2023-04-18T00:36:51.568Z,2552.00
2023-04-18T00:37:51.556Z,2529.00
2023-04-18T00:38:51.609Z,2567.00
2023-04-18T00:39:51.653Z,2568.00
2023-04-18T00:40:51.710Z,2577.00
2023-04-18T00:41:51.777Z,2572.00
2023-04-18T00:42:51.810Z,2601.00
2023-04-18T00:43:51.879Z,2581.00
2023-04-18T00:44:51.944Z,2562.00
2023-04-18T00:45:51.993Z,2567.00
2023-04-18T00:46:51.998Z,2570.00
2023-04-18T00:47:52.034Z,2563.00
2023-04-18T00:48:51.958Z,2552.00
2023-04-18T00:49:51.968Z,2567.00
2023-04-18T00:50:51.978Z,2549.00
2023-04-18T00:51:52.017Z,2567.00
2023-04-18T00:52:51.984Z,2575.00
2023-04-18T00:53:51.994Z,2570.00
2023-04-18T00:54:52.027Z,2568.00
2023-04-18T00:55:52.008Z,2578.00
2023-04-18T00:56:52.028Z,2583.00
2023-04-18T00:57:52.045Z,2565.00
2023-04-18T00:58:52.062Z,2561.00
2023-04-18T00:59:52.070Z,2519.00
2023-04-18T01:00:52.083Z,2511.00
2023-04-18T01:01:52.280Z,2495.00
2023-04-18T01:02:52.189Z,2478.00
2023-04-18T01:03:52.142Z,2488.00
2023-04-18T01:04:52.098Z,2509.00
2023-04-18T01:05:52.179Z,2483.00
2023-04-18T01:06:52.199Z,2482.00
2023-04-18T01:07:52.262Z,2455.00
2023-04-18T01:08:52.249Z,2427.00
2023-04-18T01:09:52.231Z,2442.00
2023-04-18T01:10:52.249Z,2480.00
2023-04-18T01:11:52.267Z,2479.00
2023-04-18T01:12:52.265Z,2502.00
2023-04-18T01:13:52.273Z,2521.00
2023-04-18T01:14:52.297Z,2492.00
2023-04-18T01:15:52.361Z,2473.00
2023-04-18T01:16:52.298Z,2501.00
2023-04-18T01:17:52.430Z,2498.00
2023-04-18T01:18:52.308Z,2491.00
2023-04-18T01:19:52.312Z,2492.00
2023-04-18T01:20:52.368Z,2473.00
2023-04-18T01:21:52.352Z,2470.00
2023-04-18T01:22:52.364Z,2467.00
2023-04-18T01:23:52.382Z,2476.00
2023-04-18T01:24:52.380Z,2463.00
2023-04-18T01:25:52.370Z,2467.00
2023-04-18T01:26:52.393Z,2461.00
2023-04-18T01:27:52.409Z,2458.00
2023-04-18T01:28:52.444Z,2477.00
2023-04-18T01:29:52.403Z,2499.00
2023-04-18T01:30:52.480Z,2466.00
2023-04-18T01:31:52.434Z,2443.00
2023-04-18T01:32:52.476Z,2458.00
2023-04-18T01:33:52.452Z,2475.00
2023-04-18T01:34:52.460Z,2457.00
2023-04-18T01:35:52.475Z,2474.00
2023-04-18T01:36:52.492Z,2493.00
2023-04-18T01:37:52.516Z,2475.00
2023-04-18T01:38:52.502Z,2472.00
2023-04-18T01:39:52.608Z,2459.00
2023-04-18T01:40:52.533Z,2506.00
2023-04-18T01:41:52.528Z,2495.00
2023-04-18T01:42:52.543Z,2483.00
2023-04-18T01:43:52.575Z,2457.00
2023-04-18T01:44:52.587Z,2447.00
2023-04-18T01:45:52.584Z,2442.00
2023-04-18T01:46:52.629Z,2436.00
2023-04-18T01:47:52.701Z,2389.00
2023-04-18T01:48:52.628Z,2411.00
2023-04-18T01:49:52.615Z,2367.00
2023-04-18T01:50:52.636Z,2370.00
2023-04-18T01:51:52.667Z,2329.00
2023-04-18T01:52:52.645Z,2362.00
2023-04-18T01:53:52.671Z,2295.00
2023-04-18T01:54:52.666Z,2288.00
2023-04-18T01:55:52.698Z,2274.00
2023-04-18T01:56:52.702Z,2266.00
2023-04-18T01:57:52.723Z,2257.00
2023-04-18T01:58:52.732Z,2238.00
2023-04-18T01:59:52.734Z,2248.00
2023-04-18T02:00:52.858Z,2269.00
2023-04-18T02:01:52.823Z,2283.00
2023-04-18T02:02:52.879Z,2334.00
2023-04-18T02:03:53.052Z,2286.00
2023-04-18T02:04:52.770Z,2253.00
2023-04-18T02:05:52.783Z,2278.00
2023-04-18T02:06:52.780Z,2308.00
2023-04-18T02:07:52.800Z,2342.00
2023-04-18T02:08:52.820Z,2327.00
2023-04-18T02:09:52.804Z,2328.00
2023-04-18T02:10:52.821Z,2331.00
2023-04-18T02:11:52.866Z,2323.00
2023-04-18T02:12:52.849Z,2342.00
2023-04-18T02:13:52.860Z,2314.00
2023-04-18T02:14:52.895Z,2308.00
2023-04-18T02:15:52.862Z,2294.00
2023-04-18T02:16:52.970Z,2303.00
2023-04-18T02:17:52.914Z,2293.00
2023-04-18T02:18:52.893Z,2302.00
2023-04-18T02:19:52.919Z,2329.00
2023-04-18T02:20:52.927Z,2319.00
2023-04-18T02:21:52.917Z,2324.00
2023-04-18T02:22:52.924Z,2331.00
2023-04-18T02:23:52.924Z,2339.00
2023-04-18T02:24:52.938Z,2321.00
2023-04-18T02:25:52.961Z,2304.00
2023-04-18T02:26:52.964Z,2332.00
2023-04-18T02:27:52.962Z,2308.00
2023-04-18T02:28:52.972Z,2336.00
2023-04-18T02:29:53.011Z,2325.00
2023-04-18T02:30:53.005Z,2306.00
2023-04-18T02:31:53.084Z,2335.00
2023-04-18T02:32:53.106Z,2362.00
2023-04-18T02:33:53.023Z,2375.00
2023-04-18T02:34:53.040Z,2363.00
2023-04-18T02:35:53.055Z,2360.00
2023-04-18T02:36:53.058Z,2384.00
2023-04-18T02:37:53.075Z,2362.00
2023-04-18T02:38:53.083Z,2383.00
2023-04-18T02:39:53.105Z,2407.00
2023-04-18T02:40:53.113Z,2406.00
2023-04-18T02:41:53.121Z,2408.00
2023-04-18T02:42:53.151Z,2419.00
2023-04-18T02:43:53.146Z,2440.00
2023-04-18T02:44:53.142Z,2447.00
2023-04-18T02:45:53.207Z,2449.00
2023-04-18T02:46:53.178Z,2483.00
2023-04-18T02:47:56.022Z,2471.00
2023-04-18T02:48:53.188Z,2513.00
2023-04-18T02:49:53.186Z,2511.00
2023-04-18T02:50:53.158Z,2490.00
2023-04-18T02:51:53.164Z,2510.00
2023-04-18T02:52:53.171Z,2518.00
2023-04-18T02:53:53.159Z,2504.00
2023-04-18T02:54:53.157Z,2504.00
2023-04-18T02:55:53.143Z,2493.00
2023-04-18T02:56:53.118Z,2469.00
2023-04-18T02:57:53.113Z,2459.00
2023-04-18T02:58:53.142Z,2451.00
2023-04-18T02:59:53.113Z,2443.00
2023-04-18T03:00:53.131Z,2446.00
2023-04-18T03:01:53.105Z,2466.00
2023-04-18T03:02:53.167Z,2476.00
2023-04-18T03:03:53.097Z,2457.00
2023-04-18T03:04:53.146Z,2434.00
2023-04-18T03:05:53.075Z,2432.00
2023-04-18T03:06:53.071Z,2432.00
2023-04-18T03:07:53.050Z,2409.00
2023-04-18T03:08:53.041Z,2422.00
2023-04-18T03:09:53.036Z,2374.00
2023-04-18T03:10:54.228Z,2421.00
2023-04-18T03:11:53.226Z,2407.00
2023-04-18T03:12:53.210Z,2387.00
2023-04-18T03:13:53.227Z,2353.00
2023-04-18T03:14:53.214Z,2329.00
2023-04-18T03:15:53.284Z,2299.00
2023-04-18T03:16:55.423Z,2282.00
2023-04-18T03:17:53.270Z,2262.00
2023-04-18T03:18:53.247Z,2269.00
2023-04-18T03:19:53.280Z,2289.00
2023-04-18T03:20:53.285Z,2298.00
2023-04-18T03:21:53.302Z,2283.00
2023-04-18T03:22:53.316Z,2288.00
2023-04-18T03:23:53.346Z,2307.00
2023-04-18T03:24:53.320Z,2307.00
2023-04-18T03:25:53.323Z,2319.00
2023-04-18T03:26:53.344Z,2298.00
2023-04-18T03:27:53.357Z,2275.00
2023-04-18T03:28:53.373Z,2296.00
2023-04-18T03:29:53.385Z,2285.00
2023-04-18T03:30:53.453Z,2313.00
2023-04-18T03:31:53.459Z,2318.00
2023-04-18T03:32:53.587Z,2353.00
2023-04-18T03:33:53.588Z,2345.00
2023-04-18T03:34:53.660Z,2322.00
2023-04-18T03:35:53.662Z,2322.00
2023-04-18T03:36:53.664Z,2312.00
2023-04-18T03:37:53.665Z,2323.00
2023-04-18T03:38:53.676Z,2308.00
2023-04-18T03:39:53.704Z,2316.00
2023-04-18T03:40:53.715Z,2289.00
2023-04-18T03:41:53.715Z,2311.00
2023-04-18T03:42:53.719Z,2314.00
2023-04-18T03:43:53.728Z,2303.00
2023-04-18T03:44:53.742Z,2272.00
2023-04-18T03:45:53.825Z,2271.00
2023-04-18T03:46:53.785Z,2312.00
2023-04-18T03:47:53.836Z,2335.00
2023-04-18T03:48:53.799Z,2313.00
2023-04-18T03:49:53.806Z,2283.00
2023-04-18T03:50:53.868Z,2299.00
2023-04-18T03:51:53.910Z,2284.00
2023-04-18T03:52:53.982Z,2274.00
2023-04-18T03:53:54.060Z,2287.00
2023-04-18T03:54:54.115Z,2302.00
2023-04-18T03:55:54.165Z,2257.00
2023-04-18T03:56:54.232Z,2273.00
2023-04-18T03:57:54.265Z,2310.00
2023-04-18T03:58:54.268Z,2330.00
2023-04-18T03:59:54.278Z,2365.00
2023-04-18T04:00:54.289Z,2343.00
2023-04-18T04:01:54.420Z,2319.00
2023-04-18T04:02:54.473Z,2305.00
2023-04-18T04:03:54.516Z,2279.00
2023-04-18T04:04:54.398Z,2279.00
2023-04-18T04:05:54.344Z,2259.00
2023-04-18T04:06:54.375Z,2251.00
2023-04-18T04:07:54.363Z,2249.00
2023-04-18T04:08:54.386Z,2243.00
2023-04-18T04:09:54.404Z,2259.00
2023-04-18T04:10:54.386Z,2260.00
2023-04-18T04:11:54.418Z,2253.00
2023-04-18T04:12:54.417Z,2237.00
2023-04-18T04:13:54.431Z,2226.00
2023-04-18T04:14:54.450Z,2264.00
2023-04-18T04:15:54.483Z,2273.00
2023-04-18T04:16:54.481Z,2271.00
2023-04-18T04:17:54.577Z,2264.00
2023-04-18T04:18:54.511Z,2286.00
2023-04-18T04:19:54.497Z,2280.00
2023-04-18T04:20:54.517Z,2277.00
2023-04-18T04:21:54.533Z,2226.00
2023-04-18T04:22:54.522Z,2232.00
2023-04-18T04:23:54.536Z,2189.00
2023-04-18T04:24:54.573Z,2178.00
2023-04-18T04:25:54.566Z,2187.00
2023-04-18T04:26:54.605Z,2172.00
2023-04-18T04:27:54.579Z,2166.00
2023-04-18T04:28:54.610Z,2189.00
2023-04-18T04:29:54.616Z,2242.00
2023-04-18T04:30:54.646Z,2280.00
2023-04-18T04:31:54.691Z,2329.00
2023-04-18T04:32:54.739Z,2372.00
2023-04-18T04:33:54.738Z,2387.00
2023-04-18T04:34:54.772Z,2406.00
2023-04-18T04:35:54.741Z,2383.00
2023-04-18T04:36:54.757Z,2372.00
2023-04-18T04:37:54.763Z,2372.00
2023-04-18T04:38:54.788Z,2371.00
2023-04-18T04:39:54.797Z,2387.00
2023-04-18T04:40:54.806Z,2393.00
2023-04-18T04:41:54.831Z,2409.00
2023-04-18T04:42:54.839Z,2371.00
2023-04-18T04:43:54.850Z,2388.00
2023-04-18T04:44:54.867Z,2417.00
2023-04-18T04:45:54.903Z,2424.00
2023-04-18T04:46:54.892Z,2427.00
2023-04-18T04:47:54.942Z,2402.00
2023-04-18T04:48:54.899Z,2421.00
2023-04-18T04:49:54.938Z,2437.00
2023-04-18T04:50:54.993Z,2483.00
2023-04-18T04:51:54.940Z,2487.00
2023-04-18T04:52:54.978Z,2486.00
2023-04-18T04:53:54.961Z,2470.00
2023-04-18T04:54:55.032Z,2486.00
2023-04-18T04:55:54.984Z,2479.00
2023-04-18T04:56:54.996Z,2466.00
2023-04-18T04:57:55.019Z,2424.00
2023-04-18T04:58:55.013Z,2450.00
2023-04-18T04:59:55.048Z,2463.00
2023-04-18T05:00:55.176Z,2485.00
2023-04-18T05:01:55.090Z,2449.00
2023-04-18T05:02:55.231Z,2443.00
2023-04-18T05:04:55.109Z,2402.00
2023-04-18T05:05:55.094Z,2400.00
2023-04-18T05:06:55.121Z,2393.00
2023-04-18T05:07:55.125Z,2443.00
2023-04-18T05:08:55.155Z,2474.00
2023-04-18T05:09:55.141Z,2477.00
2023-04-18T05:10:55.161Z,2492.00
2023-04-18T05:11:55.168Z,2513.00
2023-04-18T05:12:55.167Z,2516.00
2023-04-18T05:13:55.195Z,2492.00
2023-04-18T05:14:55.194Z,2473.00
2023-04-18T05:15:55.196Z,2472.00
2023-04-18T05:16:55.234Z,2541.00
2023-04-18T05:17:55.242Z,2620.00
2023-04-18T05:18:55.219Z,2669.00
2023-04-18T05:19:55.234Z,2699.00
2023-04-18T05:20:55.252Z,2738.00
2023-04-18T05:21:55.252Z,2747.00
2023-04-18T05:22:55.254Z,2725.00
2023-04-18T05:23:55.265Z,2715.00
2023-04-18T05:24:55.292Z,2731.00
2023-04-18T05:25:55.297Z,2786.00
2023-04-18T05:26:55.329Z,2871.00
2023-04-18T05:27:55.298Z,2853.00
2023-04-18T05:28:55.300Z,2922.00
2023-04-18T05:29:55.291Z,2960.00
2023-04-18T05:30:55.376Z,2986.00
2023-04-18T05:31:55.320Z,2894.00
2023-04-18T05:32:55.390Z,2802.00
2023-04-18T05:33:55.394Z,2837.00
2023-04-18T05:34:55.434Z,2907.00
2023-04-18T05:35:55.470Z,2924.00
2023-04-18T05:36:55.471Z,2894.00
2023-04-18T05:37:55.540Z,2827.00
2023-04-18T05:38:55.552Z,2795.00
2023-04-18T05:39:55.583Z,2737.00
2023-04-18T05:40:55.741Z,2801.00
2023-04-18T05:41:55.721Z,2923.00
2023-04-18T05:42:55.738Z,2981.00
2023-04-18T05:44:04.750Z,3010.00
2023-04-18T05:44:56.742Z,3012.00
2023-04-18T05:45:57.643Z,3023.00
2023-04-18T05:46:55.727Z,3048.00
2023-04-18T05:47:55.814Z,3114.00
2023-04-18T05:48:55.754Z,3224.00
2023-04-18T05:49:55.710Z,3276.00
2023-04-18T05:50:55.715Z,3317.00
2023-04-18T05:51:55.683Z,3331.00
2023-04-18T05:52:55.707Z,3354.00
2023-04-18T05:53:55.716Z,3342.00
2023-04-18T05:54:56.229Z,3388.00
2023-04-18T05:55:55.809Z,3413.00
2023-04-18T05:56:55.857Z,3440.00
2023-04-18T05:57:55.916Z,3478.00
2023-04-18T05:58:55.929Z,3502.00
2023-04-18T05:59:55.896Z,3497.00
2023-04-18T06:00:55.940Z,3503.00
2023-04-18T06:01:55.953Z,3492.00
2023-04-18T06:02:56.405Z,3508.00
2023-04-18T06:03:56.122Z,3537.00
2023-04-18T06:04:56.059Z,3553.00
2023-04-18T06:05:56.105Z,3567.00
2023-04-18T06:06:56.001Z,3573.00
2023-04-18T06:07:56.009Z,3573.00
2023-04-18T06:08:55.993Z,3589.00
2023-04-18T06:09:55.981Z,3601.00
2023-04-18T06:10:56.003Z,3612.00
2023-04-18T06:11:56.070Z,3620.00
2023-04-18T06:12:56.033Z,3608.00
2023-04-18T06:13:56.215Z,3603.00
2023-04-18T06:14:56.154Z,3573.00
2023-04-18T06:15:56.239Z,3595.00
2023-04-18T06:16:56.294Z,3621.00
2023-04-18T06:17:56.342Z,3643.00
2023-04-18T06:18:56.738Z,3638.00
2023-04-18T06:19:56.444Z,3614.00
2023-04-18T06:20:56.569Z,3642.00
2023-04-18T06:21:56.569Z,3666.00
2023-04-18T06:22:56.645Z,3662.00
2023-04-18T06:23:56.674Z,3668.00
2023-04-18T06:24:56.735Z,3660.00
2023-04-18T06:25:56.794Z,3657.00
2023-04-18T06:26:56.836Z,3660.00
2023-04-18T06:27:56.887Z,3656.00
2023-04-18T06:28:56.920Z,3644.00
2023-04-18T06:29:56.984Z,3612.00
2023-04-18T06:30:57.017Z,3574.00
2023-04-18T06:31:57.141Z,3474.00
2023-04-18T06:32:57.141Z,3416.00
2023-04-18T06:33:57.166Z,3130.00
2023-04-18T06:34:57.179Z,2870.00
2023-04-18T06:35:57.250Z,2730.00
2023-04-18T06:36:57.283Z,2773.00
2023-04-18T06:37:57.310Z,2846.00
2023-04-18T06:38:57.368Z,2952.00
2023-04-18T06:39:57.411Z,3019.00
2023-04-18T06:40:57.406Z,3030.00
2023-04-18T06:41:57.431Z,3095.00
2023-04-18T06:42:57.446Z,3143.00
2023-04-18T06:44:57.739Z,3216.00
2023-04-18T06:45:57.531Z,3238.00
2023-04-18T06:46:57.456Z,3187.00
2023-04-18T06:47:57.493Z,3188.00
2023-04-18T06:48:57.444Z,3190.00
2023-04-18T06:49:57.442Z,3226.00
2023-04-18T06:50:57.423Z,3289.00
2023-04-18T06:51:57.409Z,3261.00
2023-04-18T06:52:57.411Z,3233.00
2023-04-18T06:53:57.398Z,3268.00
2023-04-18T06:54:57.406Z,3265.00
2023-04-18T06:55:57.393Z,3123.00
2023-04-18T06:56:57.377Z,2881.00
2023-04-18T06:57:57.388Z,2827.00
2023-04-18T06:58:57.732Z,2740.00
2023-04-18T06:59:57.399Z,2671.00
2023-04-18T07:00:57.383Z,2626.00
2023-04-18T07:01:57.364Z,2581.00
2023-04-18T07:02:57.539Z,2512.00
2023-04-18T07:03:57.850Z,2486.00
2023-04-18T07:04:57.324Z,2467.00
2023-04-18T07:05:57.324Z,2405.00
2023-04-18T07:06:57.325Z,2325.00
2023-04-18T07:07:57.304Z,2277.00
2023-04-18T07:08:57.316Z,2326.00
2023-04-18T07:09:57.303Z,2325.00
2023-04-18T07:10:57.748Z,2271.00
2023-04-18T07:11:57.263Z,2192.00
2023-04-18T07:12:57.291Z,2020.00
2023-04-18T07:13:57.273Z,2016.00
2023-04-18T07:14:57.267Z,2167.00
2023-04-18T07:15:57.262Z,2357.00
2023-04-18T07:16:57.283Z,2316.00
2023-04-18T07:17:57.266Z,2324.00
2023-04-18T07:18:57.233Z,2265.00
2023-04-18T07:19:57.223Z,2304.00
2023-04-18T07:20:57.232Z,2326.00
2023-04-18T07:21:57.218Z,2380.00
2023-04-18T07:22:57.224Z,2385.00
2023-04-18T07:23:57.188Z,2375.00
2023-04-18T07:24:57.193Z,2391.00
2023-04-18T07:25:57.170Z,2387.00
2023-04-18T07:26:57.205Z,2132.00
2023-04-18T07:27:57.176Z,1996.00
2023-04-18T07:28:57.188Z,1807.00
2023-04-18T07:29:57.153Z,1739.00
2023-04-18T07:30:57.298Z,1657.00
2023-04-18T07:31:57.165Z,1734.00
2023-04-18T07:32:57.209Z,1945.00
2023-04-18T07:33:57.261Z,2045.00
2023-04-18T07:34:57.122Z,2168.00
2023-04-18T07:35:57.239Z,2197.00
2023-04-18T07:36:57.117Z,2336.00
2023-04-18T07:37:57.104Z,2488.00
2023-04-18T07:38:57.099Z,2609.00
2023-04-18T07:39:57.123Z,2681.00
2023-04-18T07:40:57.243Z,2751.00
2023-04-18T07:41:57.080Z,2811.00
2023-04-18T07:42:57.074Z,2880.00
2023-04-18T07:43:57.266Z,2973.00
2023-04-18T07:44:57.079Z,3012.00
2023-04-18T07:45:57.167Z,3037.00
2023-04-18T07:46:57.053Z,3012.00
2023-04-18T07:47:57.101Z,3013.00
2023-04-18T07:48:57.249Z,2977.00
2023-04-18T07:49:57.061Z,2997.00
2023-04-18T07:50:57.128Z,2992.00
2023-04-18T07:51:57.168Z,2994.00
2023-04-18T07:52:57.201Z,3001.00
2023-04-18T07:53:57.236Z,3015.00
2023-04-18T07:54:57.270Z,3021.00
2023-04-18T07:55:57.265Z,3041.00
2023-04-18T07:56:57.340Z,3049.00
2023-04-18T07:57:57.379Z,3067.00
2023-04-18T07:58:57.443Z,3087.00
2023-04-18T07:59:57.525Z,3108.00
2023-04-18T08:00:57.580Z,3097.00
2023-04-18T08:01:57.584Z,3116.00
2023-04-18T08:02:57.744Z,3142.00
2023-04-18T08:03:57.674Z,3145.00
2023-04-18T08:04:57.912Z,3155.00
2023-04-18T08:05:57.663Z,3161.00
2023-04-18T08:06:57.709Z,3176.00
2023-04-18T08:07:57.727Z,3168.00
2023-04-18T08:08:57.706Z,3174.00
2023-04-18T08:09:57.727Z,3170.00
2023-04-18T08:10:57.719Z,3144.00
2023-04-18T08:11:57.710Z,3100.00
2023-04-18T08:12:57.728Z,3126.00
2023-04-18T08:13:57.776Z,3145.00
2023-04-18T08:14:57.783Z,3151.00
2023-04-18T08:15:57.817Z,3168.00
2023-04-18T08:16:57.837Z,3181.00
2023-04-18T08:17:57.884Z,3188.00
2023-04-18T08:18:57.864Z,3223.00
2023-04-18T08:19:58.310Z,3214.00
2023-04-18T08:20:58.265Z,3205.00
2023-04-18T08:21:57.935Z,3050.00
2023-04-18T08:23:06.792Z,2920.00
2023-04-18T08:23:58.918Z,2924.00
2023-04-18T08:25:05.176Z,2939.00
2023-04-18T08:25:58.926Z,2923.00
2023-04-18T08:26:57.913Z,2900.00
2023-04-18T08:27:57.898Z,2813.00
2023-04-18T08:28:57.888Z,2804.00
2023-04-18T08:29:58.297Z,2718.00
2023-04-18T08:30:57.889Z,2548.00
2023-04-18T08:31:57.954Z,2395.00
2023-04-18T08:32:58.012Z,2305.00
2023-04-18T08:33:57.948Z,2254.00
2023-04-18T08:34:57.967Z,2256.00
2023-04-18T08:35:58.005Z,2556.00
2023-04-18T08:36:58.035Z,2588.00
2023-04-18T08:37:58.081Z,2669.00
2023-04-18T08:38:58.128Z,2705.00
2023-04-18T08:39:58.191Z,2762.00
2023-04-18T08:40:58.205Z,2813.00
2023-04-18T08:41:58.256Z,2689.00
2023-04-18T08:42:58.275Z,2499.00
2023-04-18T08:43:58.320Z,2391.00
2023-04-18T08:44:58.349Z,2304.00
2023-04-18T08:45:58.442Z,2245.00
2023-04-18T08:46:58.440Z,2210.00
2023-04-18T08:47:58.526Z,2343.00
2023-04-18T08:48:58.552Z,2431.00
2023-04-18T08:49:58.612Z,2493.00
2023-04-18T08:50:58.667Z,2492.00
2023-04-18T08:51:58.718Z,2445.00
2023-04-18T08:52:58.762Z,2392.00
2023-04-18T08:53:58.837Z,2347.00
2023-04-18T08:54:58.897Z,2307.00
2023-04-18T08:55:59.287Z,2300.00
2023-04-18T08:56:59.007Z,2253.00
2023-04-18T08:57:59.067Z,2166.00
2023-04-18T08:58:59.128Z,2127.00
2023-04-18T08:59:59.159Z,2077.00
2023-04-18T09:00:59.267Z,2039.00
2023-04-18T09:01:59.350Z,2019.00
2023-04-18T09:02:59.426Z,1973.00
2023-04-18T09:03:59.391Z,1985.00
2023-04-18T09:04:59.437Z,1948.00
2023-04-18T09:05:59.788Z,1944.00
2023-04-18T09:06:59.535Z,1916.00
2023-04-18T09:07:59.610Z,1876.00
2023-04-18T09:08:59.603Z,1781.00
2023-04-18T09:09:59.640Z,1665.00
2023-04-18T09:10:59.677Z,1545.00
2023-04-18T09:11:59.727Z,1556.00
2023-04-18T09:12:59.764Z,1686.00
2023-04-18T09:13:59.801Z,1784.00
2023-04-18T09:14:59.862Z,1770.00
2023-04-18T09:16:00.278Z,1756.00
2023-04-18T09:17:00.076Z,1848.00
2023-04-18T09:18:00.107Z,1838.00
2023-04-18T09:18:59.986Z,1891.00
2023-04-18T09:20:00.044Z,1943.00
2023-04-18T09:21:00.037Z,1938.00
2023-04-18T09:22:00.132Z,1922.00
2023-04-18T09:23:00.126Z,1933.00
2023-04-18T09:24:00.148Z,1991.00
2023-04-18T09:25:00.315Z,2089.00
2023-04-18T09:26:00.216Z,2145.00
2023-04-18T09:27:00.209Z,2251.00
2023-04-18T09:28:00.271Z,2366.00
2023-04-18T09:29:00.305Z,2387.00
2023-04-18T09:30:00.801Z,2433.00
2023-04-18T09:31:00.422Z,2565.00
2023-04-18T09:32:00.435Z,2550.00
2023-04-18T09:33:00.511Z,2610.00
2023-04-18T09:34:00.492Z,2375.00
2023-04-18T09:35:01.984Z,2194.00
2023-04-18T09:36:00.832Z,1985.00
2023-04-18T09:37:00.559Z,2256.00
2023-04-18T09:38:00.548Z,2426.00
2023-04-18T09:39:00.500Z,2461.00
2023-04-18T09:40:00.517Z,2372.00
2023-04-18T09:41:00.489Z,2423.00
2023-04-18T09:42:00.503Z,1675.00
2023-04-18T09:43:00.489Z,1292.00
2023-04-18T09:44:00.479Z,1014.00
2023-04-18T09:45:00.494Z,1105.00
2023-04-18T09:46:00.507Z,707.00
2023-04-18T09:47:00.469Z,636.00
2023-04-18T09:48:00.542Z,862.00
2023-04-18T09:49:00.445Z,1188.00
2023-04-18T09:50:00.423Z,1724.00
2023-04-18T09:51:00.437Z,1918.00
2023-04-18T09:52:00.795Z,1822.00
2023-04-18T09:53:00.426Z,2006.00
2023-04-18T09:54:00.404Z,1954.00
2023-04-18T09:55:00.395Z,1884.00
2023-04-18T09:56:00.389Z,1679.00
2023-04-18T09:57:00.400Z,1383.00
2023-04-18T09:58:00.397Z,1032.00
2023-04-18T09:59:00.366Z,932.00
2023-04-18T10:00:00.387Z,835.00
2023-04-18T10:01:00.826Z,956.00
2023-04-18T10:02:00.412Z,945.00
2023-04-18T10:03:00.475Z,766.00
2023-04-18T10:04:00.494Z,625.00
2023-04-18T10:05:00.433Z,610.00
2023-04-18T10:06:00.345Z,596.00
2023-04-18T10:07:00.326Z,611.00
2023-04-18T10:08:00.310Z,500.00
2023-04-18T10:09:00.306Z,532.00
2023-04-18T10:10:00.323Z,517.00
2023-04-18T10:11:00.312Z,550.00
2023-04-18T10:12:00.354Z,560.00
2023-04-18T10:13:00.298Z,561.00
2023-04-18T10:14:00.315Z,581.00
2023-04-18T10:15:00.306Z,553.00
2023-04-18T10:16:00.327Z,558.00
2023-04-18T10:17:00.280Z,544.00
2023-04-18T10:18:05.327Z,528.00
2023-04-18T10:19:01.256Z,530.00
2023-04-18T10:20:00.279Z,531.00
2023-04-18T10:21:00.275Z,535.00
2023-04-18T10:22:00.302Z,597.00
2023-04-18T10:23:00.239Z,606.00
2023-04-18T10:24:00.238Z,412.00
2023-04-18T10:25:00.221Z,400.00
2023-04-18T10:26:00.225Z,400.00
2023-04-18T10:27:00.320Z,400.00
2023-04-18T10:28:00.214Z,400.00
2023-04-18T10:29:00.217Z,400.00
2023-04-18T10:30:00.208Z,400.00
2023-04-18T10:31:00.243Z,400.00
2023-04-18T10:32:00.276Z,400.00
2023-04-18T10:33:00.259Z,400.00
2023-04-18T10:34:05.301Z,400.00
2023-04-18T10:35:01.190Z,400.00
2023-04-18T10:36:00.324Z,400.00
2023-04-18T10:37:00.184Z,400.00
2023-04-18T10:38:00.211Z,400.00
2023-04-18T10:39:00.172Z,400.00
2023-04-18T10:40:00.249Z,400.00
2023-04-18T10:41:00.334Z,400.00
2023-04-18T10:42:00.119Z,400.00
2023-04-18T10:43:00.152Z,400.00
2023-04-18T10:44:00.147Z,400.00
2023-04-18T10:45:00.160Z,400.00
2023-04-18T10:46:00.151Z,400.00
2023-04-18T10:47:00.211Z,421.00
2023-04-18T10:48:00.169Z,544.00
2023-04-18T10:49:00.822Z,631.00
2023-04-18T10:50:00.085Z,842.00
2023-04-18T10:51:00.145Z,985.00
2023-04-18T10:52:00.190Z,1196.00
2023-04-18T10:53:00.235Z,1420.00
2023-04-18T10:54:00.259Z,1358.00
2023-04-18T10:55:00.308Z,1268.00
2023-04-18T10:56:00.340Z,1258.00
2023-04-18T10:57:00.339Z,1422.00
2023-04-18T10:58:00.393Z,1482.00
2023-04-18T10:59:00.379Z,1638.00
2023-04-18T11:00:00.401Z,1680.00
2023-04-18T11:01:00.463Z,1698.00
2023-04-18T11:02:00.466Z,1792.00
2023-04-18T11:03:00.606Z,1880.00
2023-04-18T11:04:00.674Z,1861.00
2023-04-18T11:05:00.454Z,1961.00
2023-04-18T11:06:00.477Z,2058.00
2023-04-18T11:07:00.482Z,2151.00
2023-04-18T11:08:00.457Z,2246.00
2023-04-18T11:09:00.472Z,2410.00
2023-04-18T11:10:00.555Z,2521.00
2023-04-18T11:11:00.839Z,2674.00
2023-04-18T11:12:00.823Z,2789.00
2023-04-18T11:13:00.492Z,2887.00
2023-04-18T11:14:00.482Z,2732.00
2023-04-18T11:15:00.454Z,2608.00
2023-04-18T11:16:00.835Z,2848.00
2023-04-18T11:17:00.541Z,2790.00
2023-04-18T11:18:00.558Z,2924.00
2023-04-18T11:19:00.462Z,2950.00
2023-04-18T11:20:00.456Z,2942.00
2023-04-18T11:21:00.473Z,2949.00
2023-04-18T11:22:00.857Z,3030.00
2023-04-18T11:23:00.461Z,3568.00
2023-04-18T11:24:00.481Z,3944.00
2023-04-18T11:25:00.492Z,4124.00
2023-04-18T11:26:00.501Z,4276.00
2023-04-18T11:27:00.529Z,3924.00
2023-04-18T11:28:00.577Z,3666.00
2023-04-18T11:29:00.568Z,3676.00
2023-04-18T11:30:00.605Z,3702.00
2023-04-18T11:31:00.612Z,3835.00
2023-04-18T11:32:00.695Z,3919.00
2023-04-18T11:33:00.716Z,3952.00
2023-04-18T11:34:00.708Z,4068.00
2023-04-18T11:35:00.764Z,4056.00
2023-04-18T11:36:00.794Z,4058.00
2023-04-18T11:37:00.844Z,4119.00
2023-04-18T11:38:00.897Z,4154.00
2023-04-18T11:39:00.938Z,4216.00
2023-04-18T11:40:01.001Z,4280.00
2023-04-18T11:41:01.070Z,4325.00
2023-04-18T11:42:01.157Z,4309.00
2023-04-18T11:43:01.201Z,4353.00
2023-04-18T11:44:01.283Z,4391.00
2023-04-18T11:45:01.305Z,4451.00
2023-04-18T11:46:01.446Z,4516.00
2023-04-18T11:47:01.456Z,4575.00
2023-04-18T11:48:01.606Z,4513.00
2023-04-18T11:49:01.591Z,4494.00
2023-04-18T11:50:01.625Z,4473.00
2023-04-18T11:51:01.710Z,4450.00
2023-04-18T11:52:01.801Z,4414.00
2023-04-18T11:53:01.839Z,4473.00
2023-04-18T11:54:01.900Z,4551.00
2023-04-18T11:55:01.952Z,4548.00
2023-04-18T11:56:02.077Z,4604.00
2023-04-18T11:57:02.142Z,4555.00
2023-04-18T11:58:02.150Z,4584.00
2023-04-18T11:59:02.271Z,4669.00
2023-04-18T12:00:02.243Z,4588.00
2023-04-18T12:01:02.282Z,4635.00
2023-04-18T12:02:09.057Z,4678.00
2023-04-18T12:03:03.387Z,4179.00
2023-04-18T12:04:02.882Z,3726.00
2023-04-18T12:05:02.612Z,3695.00
2023-04-18T12:06:02.413Z,3429.00
2023-04-18T12:07:02.307Z,2526.00
2023-04-18T12:08:02.259Z,1831.00
2023-04-18T12:09:02.234Z,1740.00
2023-04-18T12:10:02.273Z,1861.00